Time;durP1;ratioP1;P1;durP2;ratioP2;P2;SDS_P1;SDS_P2;PMS_P1;PMS_P2;Temp;Humidity;BMP_temperature;BMP_pressure;BME280_temperature;BME280_humidity;BME280_pressure;Samples;Min_cycle;Max_cycle;Signal;HPM_P1;HPM_P2
2023/01/26 00:00:44;;;;;;;123.87;30.20;;;-1.40;99.90;;;;;;4900751;29;20044;-83
2023/01/26 00:03:10;;;;;;;121.80;30.67;;;-1.40;99.90;;;;;;4917374;29;20401;-85
2023/01/26 00:05:37;;;;;;;112.93;30.50;;;-1.40;99.90;;;;;;4917749;29;20135;-85
2023/01/26 00:08:03;;;;;;;110.67;30.57;;;-0.20;99.90;;;;;;4916628;29;20048;-84
2023/01/26 00:10:29;;;;;;;113.43;29.50;;;-1.40;99.90;;;;;;4918147;29;20413;-85
2023/01/26 00:12:55;;;;;;;126.03;31.53;;;-1.40;99.90;;;;;;4917070;29;20048;-85
2023/01/26 00:15:21;;;;;;;123.20;29.93;;;-1.40;99.90;;;;;;4943224;23;20404;-85
2023/01/26 00:17:46;;;;;;;129.77;32.23;;;-1.40;99.90;;;;;;4901113;29;20052;-84
2023/01/26 00:20:12;;;;;;;125.40;30.13;;;-1.40;99.90;;;;;;4900203;29;20135;-85
2023/01/26 00:22:38;;;;;;;115.40;28.77;;;-1.40;99.90;;;;;;4918033;29;20040;-85
2023/01/26 00:25:04;;;;;;;105.57;28.93;;;-1.40;99.90;;;;;;4917638;29;20052;-85
2023/01/26 00:27:31;;;;;;;121.03;29.87;;;-1.40;99.90;;;;;;4917447;29;20079;-85
2023/01/26 00:29:57;;;;;;;127.17;30.13;;;-1.40;99.90;;;;;;4900731;29;20048;-84
2023/01/26 00:32:23;;;;;;;126.53;29.77;;;-1.30;99.90;;;;;;4901018;29;20099;-84
2023/01/26 00:34:48;;;;;;;120.23;29.00;;;-1.30;99.90;;;;;;4899863;29;20058;-85
2023/01/26 00:37:14;;;;;;;120.47;29.23;;;-1.30;99.90;;;;;;4900665;29;20076;-85
2023/01/26 00:39:39;;;;;;;120.57;29.27;;;-1.30;99.90;;;;;;4917710;29;20047;-85
2023/01/26 00:42:05;;;;;;;129.30;29.50;;;-1.30;99.90;;;;;;4916995;29;20087;-84
2023/01/26 00:44:31;;;;;;;109.10;27.70;;;-1.30;99.90;;;;;;4900170;29;20043;-85
2023/01/26 00:46:57;;;;;;;119.77;29.43;;;-1.30;99.90;;;;;;4900207;29;20040;-85
2023/01/26 00:49:22;;;;;;;123.77;29.67;;;-1.40;99.90;;;;;;4917151;29;20051;-84
2023/01/26 00:51:48;;;;;;;126.60;30.63;;;-1.30;99.90;;;;;;4917386;29;20401;-84
2023/01/26 00:54:14;;;;;;;121.83;29.17;;;-1.30;99.90;;;;;;4916032;29;20131;-84
2023/01/26 00:56:39;;;;;;;112.63;28.93;;;-1.30;99.90;;;;;;4899668;29;20056;-84
2023/01/26 00:59:05;;;;;;;123.40;30.40;;;-1.30;99.90;;;;;;4917044;29;20047;-84
2023/01/26 01:01:31;;;;;;;123.27;31.90;;;-1.40;99.90;;;;;;4915308;29;20621;-84
2023/01/26 01:03:58;;;;;;;124.23;32.00;;;-1.30;99.90;;;;;;4915489;29;20396;-85
2023/01/26 01:06:23;;;;;;;123.40;31.53;;;-1.40;99.90;;;;;;4915944;29;20135;-84
2023/01/26 01:08:49;;;;;;;122.13;31.40;;;-1.30;99.90;;;;;;4916473;29;20247;-84
2023/01/26 01:11:15;;;;;;;116.70;30.10;;;-1.30;99.90;;;;;;4916990;29;20048;-85
2023/01/26 01:13:40;;;;;;;122.53;31.13;;;-1.30;99.90;;;;;;4916566;29;20059;-85
2023/01/26 01:16:08;;;;;;;118.47;28.80;;;-1.30;99.90;;;;;;4899212;29;20493;-84
2023/01/26 01:18:35;;;;;;;137.87;32.00;;;-1.30;99.90;;;;;;4899608;29;20137;-85
2023/01/26 01:21:05;;;;;;;140.80;33.43;;;-1.30;99.90;;;;;;4916858;29;20047;-85
2023/01/26 01:23:31;;;;;;;131.13;30.93;;;-1.30;99.90;;;;;;4916318;29;20055;-85
2023/01/26 01:25:57;;;;;;;130.43;31.73;;;-1.30;99.90;;;;;;4916482;29;20122;-85
2023/01/26 01:28:23;;;;;;;133.27;31.70;;;0.10;99.90;;;;;;4915364;29;20066;-84
2023/01/26 01:30:49;;;;;;;136.87;32.17;;;-1.30;99.90;;;;;;4898591;29;20059;-84
2023/01/26 01:33:15;;;;;;;139.47;33.37;;;-1.30;99.90;;;;;;4899962;29;20080;-85
2023/01/26 01:35:40;;;;;;;141.90;32.10;;;-1.30;99.90;;;;;;4899990;29;20083;-85
2023/01/26 01:38:06;;;;;;;137.13;30.63;;;-1.30;99.90;;;;;;4915286;29;20054;-84
2023/01/26 01:40:31;;;;;;;149.33;32.73;;;-1.20;99.90;;;;;;4899597;29;20048;-84
2023/01/26 01:42:57;;;;;;;123.87;29.73;;;-1.20;99.90;;;;;;4899349;29;20131;-85
2023/01/26 01:45:26;;;;;;;109.37;27.90;;;-1.20;99.90;;;;;;4898945;29;20051;-84
2023/01/26 01:48:02;;;;;;;120.17;30.27;;;-1.30;99.90;;;;;;4899407;29;20078;-84
2023/01/26 01:50:30;;;;;;;106.63;26.70;;;-1.30;99.90;;;;;;4899520;29;20510;-85
2023/01/26 01:52:56;;;;;;;105.10;27.40;;;-1.30;99.90;;;;;;4915632;29;20072;-85
2023/01/26 01:55:24;;;;;;;111.53;28.70;;;-1.30;99.90;;;;;;4916610;29;20106;-84
2023/01/26 01:57:53;;;;;;;121.23;28.43;;;-1.30;99.90;;;;;;4898569;29;20445;-84
2023/01/26 02:00:21;;;;;;;122.90;30.47;;;-1.30;99.90;;;;;;4916490;29;20067;-84
2023/01/26 02:03:10;;;;;;;118.43;29.10;;;-1.20;99.90;;;;;;4899121;29;20043;-85
2023/01/26 02:06:13;;;;;;;120.90;29.67;;;-1.30;99.90;;;;;;4915754;29;20080;-84
2023/01/26 02:08:44;;;;;;;121.40;29.03;;;-1.20;99.90;;;;;;4868430;29;20142;-83
2023/01/26 02:11:21;;;;;;;124.17;29.80;;;-1.20;99.90;;;;;;4916169;29;20107;-84
2023/01/26 02:13:48;;;;;;;115.50;28.97;;;-1.20;99.90;;;;;;4898287;29;20052;-84
2023/01/26 02:16:15;;;;;;;119.30;29.83;;;-1.20;99.90;;;;;;4901823;29;20052;-84
2023/01/26 02:18:41;;;;;;;117.43;29.27;;;-1.20;99.90;;;;;;4903543;29;20068;-84
2023/01/26 02:21:10;;;;;;;119.70;28.93;;;-1.20;99.90;;;;;;4903526;29;20048;-84
2023/01/26 02:24:01;;;;;;;122.73;29.80;;;-1.20;99.90;;;;;;4903065;29;20198;-85
2023/01/26 02:26:29;;;;;;;119.30;27.97;;;-1.10;99.90;;;;;;4919110;29;20397;-85
2023/01/26 02:28:56;;;;;;;108.40;27.37;;;-1.20;99.90;;;;;;4920389;29;20048;-84
2023/01/26 02:31:22;;;;;;;107.47;27.40;;;-1.10;99.90;;;;;;4902969;29;20048;-84
2023/01/26 02:33:48;;;;;;;106.43;26.13;;;-1.10;99.90;;;;;;4902289;29;20060;-84
2023/01/26 02:36:19;;;;;;;106.40;25.90;;;-1.10;99.90;;;;;;4902973;29;20484;-84
2023/01/26 02:39:10;;;;;;;107.50;28.13;;;-1.20;99.90;;;;;;4919758;29;20048;-85
2023/01/26 02:44:24;;;;;;;105.23;26.83;;;-1.10;99.90;;;;;;4902711;29;20056;-84
2023/01/26 02:46:50;;;;;;;115.63;27.40;;;-1.00;99.90;;;;;;4902818;29;20138;-85
2023/01/26 02:52:00;;;;;;;94.40;23.87;;;-1.00;99.90;;;;;;4902408;29;20051;-85
2023/01/26 02:57:09;;;;;;;83.85;22.58;;;-1.00;99.90;;;;;;4919541;29;20056;-85
2023/01/26 02:59:35;;;;;;;85.60;22.87;;;-1.00;99.90;;;;;;4919375;29;20480;-85
2023/01/26 03:02:01;;;;;;;89.50;22.67;;;-1.00;99.90;;;;;;4901408;29;20044;-85
2023/01/26 03:04:26;;;;;;;75.87;20.97;;;-0.90;99.90;;;;;;4902329;29;20048;-85
2023/01/26 03:06:52;;;;;;;84.50;21.13;;;-0.90;99.90;;;;;;4901924;29;20040;-85
2023/01/26 03:09:17;;;;;;;55.53;16.73;;;-0.90;99.90;;;;;;4901516;29;20040;-85
2023/01/26 03:11:43;;;;;;;63.97;18.73;;;-1.10;99.90;;;;;;4919165;29;20400;-86
2023/01/26 03:14:13;;;;;;;66.50;18.67;;;-0.90;99.90;;;;;;4917839;29;20083;-85
2023/01/26 03:16:39;;;;;;;58.07;17.40;;;-0.10;99.90;;;;;;4898500;29;20132;-85
2023/01/26 03:27:27;;;;;;;63.40;17.47;;;-0.90;99.90;;;;;;4917597;29;20083;-86
2023/01/26 03:29:55;;;;;;;58.03;16.63;;;-0.90;99.90;;;;;;4900844;29;20043;-85
2023/01/26 03:32:24;;;;;;;59.93;17.67;;;-0.90;99.90;;;;;;4901834;29;20047;-85
2023/01/26 03:34:49;;;;;;;59.70;17.27;;;-0.90;99.90;;;;;;4918197;29;20059;-85
2023/01/26 03:37:20;;;;;;;63.17;18.07;;;-0.90;99.90;;;;;;4917524;29;20048;-86
2023/01/26 03:56:26;;;;;;;50.47;14.50;;;-0.80;99.90;;;;;;4918702;29;20126;-86
2023/01/26 03:58:54;;;;;;;51.90;13.53;;;-0.80;99.90;;;;;;4901692;29;20111;-86
2023/01/26 04:01:25;;;;;;;49.30;13.50;;;-0.80;99.90;;;;;;4901529;29;20104;-85
2023/01/26 04:09:22;;;;;;;45.53;12.57;;;-0.70;99.90;;;;;;4901415;29;20048;-86
2023/01/26 04:11:48;;;;;;;43.67;12.63;;;-0.70;99.90;;;;;;4900138;29;20498;-85
2023/01/26 04:22:28;;;;;;;36.27;10.30;;;-0.70;99.90;;;;;;4900808;29;20051;-85
2023/01/26 04:24:55;;;;;;;32.83;11.13;;;-0.60;99.90;;;;;;4900451;29;20048;-85
2023/01/26 04:27:22;;;;;;;36.20;10.77;;;-0.60;99.90;;;;;;4899825;29;20103;-85
2023/01/26 04:29:47;;;;;;;34.67;10.60;;;-0.60;99.90;;;;;;4900838;29;20036;-85
2023/01/26 04:32:13;;;;;;;32.33;10.13;;;-0.60;99.90;;;;;;4917909;29;20052;-83
2023/01/26 04:34:39;;;;;;;35.43;10.60;;;-0.60;99.90;;;;;;4917187;29;20047;-85
2023/01/26 04:37:04;;;;;;;31.13;9.87;;;-0.60;99.90;;;;;;4900145;29;20048;-86
2023/01/26 04:39:30;;;;;;;35.43;10.93;;;-0.60;99.90;;;;;;4899952;29;20132;-85
2023/01/26 04:41:55;;;;;;;35.70;11.27;;;-0.50;99.90;;;;;;4916907;29;20079;-85
2023/01/26 04:44:21;;;;;;;34.50;10.67;;;-0.60;99.90;;;;;;4958386;23;20079;-86
2023/01/26 04:46:47;;;;;;;34.37;11.03;;;-0.60;99.90;;;;;;4899375;29;20044;-86
2023/01/26 04:49:14;;;;;;;36.40;10.30;;;-0.60;99.90;;;;;;4917449;29;20048;-86
2023/01/26 04:51:39;;;;;;;38.53;11.23;;;-0.60;99.90;;;;;;4900700;29;20052;-85
2023/01/26 04:54:05;;;;;;;31.47;10.37;;;-0.50;99.90;;;;;;4899297;29;20058;-85
2023/01/26 04:56:33;;;;;;;30.53;10.27;;;-0.50;99.90;;;;;;4900189;29;20147;-85
2023/01/26 04:59:03;;;;;;;36.90;10.33;;;-0.50;99.90;;;;;;4899830;29;20090;-85
2023/01/26 05:01:29;;;;;;;29.80;9.73;;;-0.50;99.90;;;;;;4916010;29;20048;-85
2023/01/26 05:03:54;;;;;;;29.80;10.10;;;-0.50;99.90;;;;;;4899769;29;20040;-85
2023/01/26 05:06:20;;;;;;;31.83;10.13;;;-0.50;99.90;;;;;;4916674;29;20099;-85
2023/01/26 05:08:46;;;;;;;32.67;10.03;;;-0.50;99.90;;;;;;4917575;29;20044;-84
2023/01/26 05:11:11;;;;;;;38.30;10.90;;;-0.50;99.90;;;;;;4900863;29;20131;-85
2023/01/26 05:13:38;;;;;;;32.20;10.33;;;-0.50;99.90;;;;;;4917027;29;20119;-84
2023/01/26 05:16:04;;;;;;;31.63;9.20;;;-0.40;99.90;;;;;;4898955;29;20052;-84
2023/01/26 05:18:30;;;;;;;31.03;8.93;;;-0.40;99.90;;;;;;4900048;29;20135;-84
2023/01/26 05:20:56;;;;;;;26.67;9.20;;;-0.40;99.90;;;;;;4951491;23;20043;-84
2023/01/26 05:23:23;;;;;;;29.63;8.80;;;-0.50;99.90;;;;;;4899097;29;20052;-84
2023/01/26 05:25:51;;;;;;;27.60;8.70;;;0.30;99.90;;;;;;4916767;29;20505;-84
2023/01/26 05:28:17;;;;;;;29.30;9.47;;;-0.40;99.90;;;;;;4899972;29;20138;-85
2023/01/26 05:30:46;;;;;;;27.50;8.87;;;-0.40;99.90;;;;;;4899254;29;20484;-85
2023/01/26 05:33:12;;;;;;;34.60;9.83;;;-0.40;99.90;;;;;;4906301;23;20052;-85
2023/01/26 05:35:37;;;;;;;30.70;9.33;;;-0.40;99.90;;;;;;4918447;29;20050;-85
2023/01/26 05:38:03;;;;;;;35.33;9.17;;;-0.40;99.90;;;;;;4901343;29;20056;-85
2023/01/26 05:40:29;;;;;;;30.53;9.10;;;-0.40;99.90;;;;;;4916621;29;20091;-85
2023/01/26 05:42:55;;;;;;;29.33;9.00;;;-0.40;99.90;;;;;;4961216;23;20563;-85
2023/01/26 05:45:27;;;;;;;33.53;9.70;;;-0.30;99.90;;;;;;4901213;29;20487;-84
2023/01/26 05:47:52;;;;;;;33.43;10.03;;;-0.60;99.90;;;;;;4900703;29;20048;-85
2023/01/26 05:50:18;;;;;;;32.60;10.20;;;-0.40;99.90;;;;;;4898719;29;20055;-85
2023/01/26 05:52:45;;;;;;;33.23;9.80;;;-0.30;99.90;;;;;;4899885;29;20091;-86
2023/01/26 05:55:11;;;;;;;36.63;10.40;;;-0.30;99.90;;;;;;4899286;29;20079;-85
2023/01/26 05:57:37;;;;;;;29.43;9.80;;;0.40;99.90;;;;;;4915554;29;20127;-85
2023/01/26 06:00:06;;;;;;;37.50;10.73;;;-0.30;99.90;;;;;;4916758;29;20545;-85
2023/01/26 06:02:33;;;;;;;37.00;10.73;;;-0.30;99.90;;;;;;4900136;29;20052;-85
2023/01/26 06:05:00;;;;;;;34.53;10.07;;;-0.30;99.90;;;;;;4915860;29;20131;-86
2023/01/26 06:07:25;;;;;;;33.07;10.37;;;-0.30;99.90;;;;;;4916515;29;20098;-86
2023/01/26 06:09:52;;;;;;;39.00;10.83;;;-0.30;99.90;;;;;;4899508;29;20449;-87
2023/01/26 06:12:19;;;;;;;40.87;10.27;;;-0.40;99.90;;;;;;4898584;29;20048;-86
2023/01/26 06:14:45;;;;;;;40.47;11.23;;;-0.30;99.90;;;;;;4899429;29;20471;-86
2023/01/26 06:17:12;;;;;;;36.80;11.00;;;1.10;99.90;;;;;;4899997;29;20135;-86
2023/01/26 06:19:38;;;;;;;40.60;11.73;;;-0.30;99.90;;;;;;4915133;29;20084;-86
2023/01/26 06:22:08;;;;;;;35.43;10.90;;;0.80;99.90;;;;;;4902872;29;20087;-86
2023/01/26 06:24:34;;;;;;;38.40;11.00;;;1.20;99.90;;;;;;4903171;29;20072;-86
2023/01/26 06:27:00;;;;;;;40.93;11.47;;;-0.10;99.90;;;;;;4899022;29;20486;-86
2023/01/26 06:29:26;;;;;;;46.33;12.20;;;-0.20;99.90;;;;;;4899011;29;20131;-86
2023/01/26 06:31:52;;;;;;;39.07;11.27;;;-0.10;99.90;;;;;;4916100;29;20206;-86
2023/01/26 06:34:18;;;;;;;43.87;11.93;;;0.90;99.90;;;;;;4915537;29;20095;-86
2023/01/26 06:36:44;;;;;;;38.60;11.53;;;-0.10;99.90;;;;;;4916367;29;20036;-86
2023/01/26 06:39:11;;;;;;;40.30;11.43;;;-0.10;99.90;;;;;;4897616;29;20056;-86
2023/01/26 06:41:37;;;;;;;39.73;11.40;;;-0.10;99.90;;;;;;4898864;29;20115;-86
2023/01/26 06:44:03;;;;;;;47.73;12.27;;;-0.10;99.90;;;;;;4915790;29;20484;-85
2023/01/26 06:46:29;;;;;;;43.87;12.63;;;-0.10;99.90;;;;;;4915427;29;20079;-86
2023/01/26 06:48:55;;;;;;;47.80;12.73;;;-0.10;99.90;;;;;;4915870;29;20066;-86
2023/01/26 06:51:51;;;;;;;47.00;12.63;;;-0.10;99.90;;;;;;4916083;29;20080;-86
2023/01/26 06:54:22;;;;;;;42.97;12.63;;;-0.10;99.90;;;;;;4915455;29;20134;-86
2023/01/26 06:56:50;;;;;;;53.63;13.60;;;1.20;99.90;;;;;;4915434;29;20481;-86
2023/01/26 06:59:17;;;;;;;61.20;14.27;;;-0.10;99.90;;;;;;4898879;29;20083;-86
2023/01/26 07:01:49;;;;;;;48.80;13.23;;;-0.10;99.90;;;;;;4916937;29;20044;-86
2023/01/26 07:04:18;;;;;;;53.17;13.37;;;0.00;99.90;;;;;;4919460;29;20047;-86
2023/01/26 07:06:50;;;;;;;64.27;15.40;;;-0.20;99.90;;;;;;4902628;29;20096;-86
2023/01/26 07:09:16;;;;;;;69.03;15.20;;;0.40;99.90;;;;;;4901154;29;20063;-86
2023/01/26 07:11:57;;;;;;;62.07;16.13;;;0.40;99.90;;;;;;4901716;29;20048;-86
2023/01/26 07:14:22;;;;;;;85.53;19.27;;;-0.50;99.90;;;;;;4902637;29;20040;-86
2023/01/26 07:17:04;;;;;;;81.27;18.57;;;-0.20;99.90;;;;;;4918599;29;20444;-86
2023/01/26 07:19:32;;;;;;;74.60;18.67;;;1.00;99.90;;;;;;4901931;29;20044;-86
2023/01/26 07:21:57;;;;;;;79.77;16.37;;;-0.20;99.90;;;;;;4901905;29;20044;-86
2023/01/26 07:24:35;;;;;;;90.13;17.27;;;0.00;99.90;;;;;;4919377;29;20055;-85
2023/01/26 07:27:00;;;;;;;79.70;17.20;;;0.50;99.90;;;;;;4918709;29;20234;-85
2023/01/26 07:29:26;;;;;;;83.03;16.53;;;-0.10;99.90;;;;;;4918725;29;20564;-85
2023/01/26 07:31:52;;;;;;;92.87;16.93;;;-0.20;99.90;;;;;;4918660;29;20054;-85
2023/01/26 07:34:30;;;;;;;89.73;17.07;;;-0.10;99.90;;;;;;4918991;29;20299;-87
2023/01/26 07:36:56;;;;;;;87.83;17.33;;;0.10;99.90;;;;;;4901223;29;20406;-83
2023/01/26 07:39:40;;;;;;;95.63;17.47;;;-0.10;99.90;;;;;;4918615;29;20048;-82
2023/01/26 07:42:24;;;;;;;100.17;17.83;;;-0.50;99.90;;;;;;4901565;29;20408;-82
2023/01/26 07:44:49;;;;;;;70.68;15.85;;;1.90;99.90;;;;;;4900566;29;20056;-81
2023/01/26 07:47:18;;;;;;;99.97;18.90;;;0.30;99.90;;;;;;4918628;29;20058;-81
2023/01/26 07:49:45;;;;;;;91.97;18.87;;;0.00;99.90;;;;;;4917596;29;20052;-81
2023/01/26 07:52:11;;;;;;;95.00;18.90;;;0.30;99.90;;;;;;4971769;23;20059;-81
2023/01/26 07:54:52;;;;;;;111.03;19.10;;;2.20;99.90;;;;;;4901475;29;20052;-81
2023/01/26 07:57:18;;;;;;;90.30;18.03;;;0.00;99.90;;;;;;4900469;29;20370;-81
2023/01/26 08:00:03;;;;;;;89.60;18.37;;;0.10;99.90;;;;;;4901432;29;20048;-81
2023/01/26 08:02:47;;;;;;;94.77;17.60;;;0.30;99.90;;;;;;4900960;29;20041;-81
2023/01/26 08:05:12;;;;;;;;;;;0.30;99.90;;;;;;4917929;29;20059;-81
2023/01/26 08:07:38;;;;;;;81.07;16.67;;;0.60;99.90;;;;;;4918338;29;19923;-81
2023/01/26 08:10:22;;;;;;;119.07;20.33;;;0.20;99.90;;;;;;4917974;29;20413;-81
2023/01/26 08:12:48;;;;;;;95.90;19.13;;;1.60;99.90;;;;;;4915893;29;20040;-81
2023/01/26 08:15:27;;;;;;;85.03;19.17;;;0.30;99.90;;;;;;4901074;29;20143;-81
2023/01/26 08:17:53;;;;;;;98.37;17.93;;;2.00;99.90;;;;;;4917296;29;20055;-80
2023/01/26 08:20:19;;;;;;;105.03;20.73;;;0.50;99.90;;;;;;4900691;29;20059;-79
2023/01/26 08:22:45;;;;;;;92.47;19.23;;;0.40;99.90;;;;;;4917967;29;20040;-81
2023/01/26 08:28:54;;;;;;;91.43;17.57;;;1.30;99.90;;;;;;4907776;29;20131;-81
2023/01/26 08:31:24;;;;;;;96.20;17.67;;;0.40;99.90;;;;;;4916560;29;20076;-80
2023/01/26 08:34:54;;;;;;;94.27;19.27;;;0.50;99.90;;;;;;4916005;29;20052;-80
2023/01/26 08:37:19;;;;;;;79.57;18.47;;;1.90;99.90;;;;;;4900145;29;20084;-80
2023/01/26 08:39:45;;;;;;;71.27;17.03;;;0.60;99.90;;;;;;4899113;29;20071;-80
2023/01/26 08:42:10;;;;;;;63.17;15.57;;;0.80;99.90;;;;;;4915920;29;20107;-80
2023/01/26 08:44:36;;;;;;;72.43;16.27;;;0.90;99.90;;;;;;4899773;29;20159;-81
2023/01/26 08:47:02;;;;;;;62.43;14.83;;;0.90;99.90;;;;;;4886606;29;20080;-80
2023/01/26 08:49:27;;;;;;;70.63;15.33;;;1.10;99.90;;;;;;4917022;29;20048;-79
2023/01/26 08:51:54;;;;;;;60.23;14.83;;;1.10;99.90;;;;;;4899822;29;20056;-79
2023/01/26 08:54:20;;;;;;;66.90;15.10;;;1.10;99.90;;;;;;4902272;29;20110;-79
2023/01/26 08:56:45;;;;;;;73.17;16.47;;;1.10;99.90;;;;;;4916946;29;20488;-79
2023/01/26 08:59:11;;;;;;;68.27;15.07;;;1.10;99.90;;;;;;4922807;29;20048;-79
2023/01/26 09:01:36;;;;;;;65.97;13.80;;;1.00;99.90;;;;;;4896157;29;20416;-79
2023/01/26 09:04:02;;;;;;;68.50;14.57;;;1.10;99.90;;;;;;4894057;29;20107;-79
2023/01/26 09:06:29;;;;;;;56.23;13.57;;;1.10;99.90;;;;;;4893960;29;20052;-79
2023/01/26 09:08:57;;;;;;;59.93;13.07;;;1.00;99.90;;;;;;4880087;29;20056;-78
2023/01/26 09:11:23;;;;;;;66.37;14.63;;;1.10;99.90;;;;;;4910481;29;20508;-79
2023/01/26 09:13:55;;;;;;;72.87;14.73;;;1.20;99.90;;;;;;4915708;29;20047;-80
2023/01/26 09:16:21;;;;;;;65.37;13.10;;;1.20;99.90;;;;;;4916237;29;20051;-79
2023/01/26 09:18:53;;;;;;;62.37;12.53;;;1.20;99.90;;;;;;4899383;29;20051;-79
2023/01/26 09:21:19;;;;;;;58.97;12.17;;;2.00;99.90;;;;;;4911170;29;20059;-81
2023/01/26 09:23:45;;;;;;;65.00;13.27;;;1.30;99.90;;;;;;4889991;29;20048;-79
2023/01/26 09:26:11;;;;;;;54.63;12.27;;;1.30;99.90;;;;;;4894078;29;20047;-79
2023/01/26 09:28:36;;;;;;;59.63;12.67;;;1.40;99.90;;;;;;4898614;29;20524;-79
2023/01/26 09:31:04;;;;;;;58.20;11.50;;;1.50;99.90;;;;;;4903069;29;20048;-79
2023/01/26 09:33:29;;;;;;;63.33;12.60;;;1.50;99.90;;;;;;4916155;29;20048;-80
2023/01/26 09:35:55;;;;;;;64.63;12.03;;;1.60;99.90;;;;;;4897827;29;20047;-79
2023/01/26 09:38:20;;;;;;;59.07;12.13;;;1.70;99.90;;;;;;4892862;29;20048;-80
2023/01/26 09:41:05;;;;;;;49.97;11.40;;;1.70;99.90;;;;;;4895537;29;20082;-80
2023/01/26 09:43:38;;;;;;;;;;;1.80;99.90;;;;;;4914675;29;20054;-81
2023/01/26 09:46:04;;;;;;;54.87;10.97;;;1.90;99.90;;;;;;4915369;29;19927;-81
2023/01/26 09:48:49;;;;;;;55.47;10.93;;;2.50;99.90;;;;;;4898938;29;20162;-81
2023/01/26 09:51:48;;;;;;;50.83;10.90;;;2.10;99.90;;;;;;4897860;29;20044;-81
2023/01/26 09:54:31;;;;;;;59.40;12.40;;;2.20;99.90;;;;;;4898202;29;20525;-81
2023/01/26 09:57:10;;;;;;;53.92;11.25;;;2.40;99.90;;;;;;4914560;29;20048;-81
2023/01/26 10:00:06;;;;;;;41.50;10.37;;;2.50;99.90;;;;;;4898962;29;20425;-81
2023/01/26 10:02:50;;;;;;;49.57;9.20;;;2.70;99.90;;;;;;4898126;29;20090;-81
2023/01/26 10:05:25;;;;;;;41.03;9.27;;;2.90;99.90;;;;;;4898111;29;20499;-81
2023/01/26 10:07:50;;;;;;;46.27;8.93;;;3.00;99.90;;;;;;4898821;29;20099;-81
2023/01/26 10:10:37;;;;;;;47.97;9.67;;;3.10;99.90;;;;;;4914632;29;20044;-81
2023/01/26 10:13:03;;;;;;;44.77;7.90;;;3.30;99.90;;;;;;4915547;29;20055;-81
2023/01/26 10:15:42;;;;;;;44.83;8.43;;;3.50;99.90;;;;;;4916054;23;20048;-81
2023/01/26 10:18:59;;;;;;;;;;;;;;;;;;;;;
2023/01/26 10:21:37;;;;;;;48.83;8.05;;;5.10;99.90;;;;;;4879522;29;20147;-81
2023/01/26 10:24:04;;;;;;;35.43;7.03;;;4.60;99.90;;;;;;4898096;29;20068;-81
2023/01/26 10:26:52;;;;;;;34.60;6.57;;;4.00;99.90;;;;;;4897349;29;20058;-81
2023/01/26 10:29:23;;;;;;;46.70;7.57;;;4.20;99.90;;;;;;4896856;29;20044;-81
2023/01/26 10:34:23;;;;;;;34.83;6.00;;;4.30;99.90;;;;;;4913483;23;20044;-81
2023/01/26 10:36:48;;;;;;;31.93;6.30;;;4.40;99.90;;;;;;4904242;29;20126;-81
2023/01/26 10:39:16;;;;;;;33.13;5.97;;;4.40;99.90;;;;;;4922309;29;20145;-81
2023/01/26 10:42:02;;;;;;;36.67;7.10;;;4.50;99.90;;;;;;4913166;29;20056;-81
2023/01/26 10:47:16;;;;;;;28.93;5.47;;;4.80;99.90;;;;;;4893027;29;20394;-81
2023/01/26 10:49:42;;;;;;;32.87;5.53;;;4.60;99.90;;;;;;4883159;29;20485;-82
2023/01/26 10:52:20;;;;;;;28.73;6.10;;;4.90;99.90;;;;;;4900122;29;20096;-81
2023/01/26 10:54:47;;;;;;;29.27;5.17;;;5.10;99.90;;;;;;4882826;29;20080;-81
2023/01/26 10:57:18;;;;;;;33.97;6.27;;;5.20;99.90;;;;;;4882969;29;20535;-81
2023/01/26 10:59:56;;;;;;;29.13;5.20;;;5.40;99.90;;;;;;4882215;29;20044;-81
2023/01/26 11:02:29;;;;;;;28.07;5.83;;;6.70;99.90;;;;;;4882657;29;20501;-81
2023/01/26 11:05:06;;;;;;;29.60;6.00;;;5.50;99.90;;;;;;4899206;29;20431;-81
2023/01/26 11:07:43;;;;;;;30.67;5.20;;;5.70;99.90;;;;;;4882721;29;20136;-83
2023/01/26 11:10:32;;;;;;;28.07;6.03;;;5.80;99.90;;;;;;4881373;29;20214;-83
2023/01/26 11:13:16;;;;;;;26.07;4.67;;;5.90;99.90;;;;;;4879277;29;20052;-83
2023/01/26 11:15:46;;;;;;;25.97;5.00;;;6.00;99.90;;;;;;4863971;29;20049;-83
2023/01/26 11:18:30;;;;;;;24.13;4.63;;;6.10;99.90;;;;;;4864647;29;20108;-83
2023/01/26 11:20:57;;;;;;;;;;;6.20;99.90;;;;;;4881045;29;20181;-83
2023/01/26 11:23:47;;;;;;;27.07;4.40;;;6.30;99.90;;;;;;4864167;29;19931;-82
2023/01/26 11:26:43;;;;;;;22.37;4.20;;;6.40;99.90;;;;;;4885948;29;20512;-82
2023/01/26 11:29:16;;;;;;;20.00;4.57;;;6.50;99.90;;;;;;4898837;29;20131;-84
2023/01/26 11:32:04;;;;;;;27.38;3.75;;;6.60;99.90;;;;;;4899239;29;20048;-82
2023/01/26 11:34:54;;;;;;;20.47;4.07;;;6.60;99.90;;;;;;4881782;29;20072;-83
2023/01/26 11:37:46;;;;;;;22.10;3.87;;;6.80;99.90;;;;;;4899115;29;20076;-83
2023/01/26 11:40:30;;;;;;;20.77;4.07;;;6.70;99.90;;;;;;4881915;29;20052;-83
2023/01/26 11:43:04;;;;;;;19.33;3.75;;;6.80;99.90;;;;;;4881297;29;20119;-83
2023/01/26 11:45:44;;;;;;;23.70;4.28;;;8.50;99.90;;;;;;4882146;29;20060;-83
2023/01/26 11:48:47;;;;;;;22.93;3.70;;;7.00;99.90;;;;;;4920551;23;20060;-83
2023/01/26 11:51:50;;;;;;;28.33;3.73;;;6.70;99.90;;;;;;4901010;29;20088;-83
2023/01/26 11:54:31;;;;;;;23.47;3.80;;;7.30;99.90;;;;;;4900219;29;20048;-83
2023/01/26 11:57:26;;;;;;;21.37;3.20;;;7.40;99.90;;;;;;4916933;29;20099;-83
2023/01/26 11:59:57;;;;;;;23.97;3.87;;;7.40;99.90;;;;;;4911163;29;20131;-83
2023/01/26 12:02:26;;;;;;;23.57;3.53;;;7.50;99.90;;;;;;4921138;29;20074;-83
2023/01/26 12:04:54;;;;;;;17.30;3.17;;;7.50;99.90;;;;;;4889146;29;20052;-83
2023/01/26 12:07:55;;;;;;;20.17;3.03;;;8.30;99.90;;;;;;4906462;29;20067;-83
2023/01/26 12:10:44;;;;;;;18.00;3.30;;;7.50;99.90;;;;;;4894634;29;20049;-84
2023/01/26 12:13:37;;;;;;;20.53;3.47;;;7.20;99.90;;;;;;4911174;29;20051;-83
2023/01/26 12:16:35;;;;;;;18.33;3.60;;;6.60;99.90;;;;;;4900332;29;20052;-83
2023/01/26 12:19:30;;;;;;;19.43;3.27;;;7.80;99.90;;;;;;4878478;29;20068;-83
2023/01/26 12:22:12;;;;;;;19.27;3.50;;;7.50;99.90;;;;;;4867426;29;20519;-83
2023/01/26 12:24:42;;;;;;;20.57;3.40;;;7.70;99.90;;;;;;4899247;29;20432;-84
2023/01/26 12:27:29;;;;;;;19.50;3.00;;;8.40;99.90;;;;;;4904418;29;20090;-83
2023/01/26 12:30:04;;;;;;;18.57;3.03;;;7.30;99.90;;;;;;4938358;29;20071;-81
2023/01/26 12:32:40;;;;;;;18.77;3.20;;;7.70;99.90;;;;;;4904738;29;20138;-83
2023/01/26 12:35:10;;;;;;;17.57;3.57;;;8.80;99.90;;;;;;4901898;29;20129;-83
2023/01/26 12:37:56;;;;;;;16.47;2.87;;;7.70;99.90;;;;;;4918123;29;20048;-83
2023/01/26 12:40:43;;;;;;;19.70;3.80;;;7.60;99.90;;;;;;4900818;29;20052;-82
2023/01/26 12:43:23;;;;;;;20.20;3.23;;;7.70;99.90;;;;;;4900768;29;20052;-82
2023/01/26 12:45:53;;;;;;;19.17;3.30;;;7.70;99.90;;;;;;4899779;29;20477;-82
2023/01/26 12:48:47;;;;;;;17.10;2.97;;;7.70;99.90;;;;;;4900505;29;20079;-82
2023/01/26 12:51:31;;;;;;;24.13;4.07;;;7.60;99.90;;;;;;4917781;29;20123;-82
2023/01/26 12:54:02;;;;;;;17.65;2.55;;;7.40;99.90;;;;;;4916539;29;20112;-82
2023/01/26 12:56:38;;;;;;;16.23;3.00;;;7.30;99.90;;;;;;4917513;29;20056;-82
2023/01/26 12:59:18;;;;;;;15.60;2.80;;;7.30;99.90;;;;;;4898989;29;20089;-82
2023/01/26 13:01:44;;;;;;;15.40;3.30;;;7.20;99.90;;;;;;4900480;29;20163;-82
2023/01/26 13:04:13;;;;;;;16.90;2.93;;;7.30;99.90;;;;;;4916685;29;20127;-82
2023/01/26 13:06:39;;;;;;;14.83;3.10;;;7.40;99.90;;;;;;4899224;29;20048;-82
2023/01/26 13:09:24;;;;;;;14.60;2.57;;;7.40;99.90;;;;;;4900219;29;20032;-82
2023/01/26 13:11:58;;;;;;;15.33;3.00;;;7.30;99.90;;;;;;4916824;29;20047;-82
2023/01/26 13:14:29;;;;;;;;;;;7.40;99.90;;;;;;4916823;29;20052;-82
2023/01/26 13:16:55;;;;;;;17.97;2.90;;;7.30;99.90;;;;;;4916784;29;19923;-81
2023/01/26 13:19:43;;;;;;;19.00;3.03;;;7.30;99.90;;;;;;4899937;29;20052;-81
2023/01/26 13:22:18;;;;;;;16.37;3.03;;;7.20;99.90;;;;;;4899187;29;20058;-81
2023/01/26 13:24:48;;;;;;;16.60;3.53;;;7.20;99.90;;;;;;4899972;29;20511;-82
2023/01/26 13:27:32;;;;;;;18.03;3.00;;;7.00;99.90;;;;;;4916163;29;20040;-81
2023/01/26 13:29:59;;;;;;;15.87;3.47;;;7.00;99.90;;;;;;4899694;29;20048;-81
2023/01/26 13:32:24;;;;;;;15.93;3.07;;;7.10;99.90;;;;;;4904310;29;20055;-82
2023/01/26 13:34:59;;;;;;;14.03;2.57;;;8.70;99.90;;;;;;4900305;29;20044;-81
2023/01/26 13:37:50;;;;;;;14.20;3.00;;;7.30;99.90;;;;;;4917285;29;20044;-81
2023/01/26 13:40:30;;;;;;;13.97;2.90;;;7.50;99.90;;;;;;4901846;29;20044;-81
2023/01/26 13:43:07;;;;;;;13.07;2.33;;;7.70;99.90;;;;;;4899793;29;20103;-82
2023/01/26 13:45:44;;;;;;;14.93;3.07;;;7.70;99.90;;;;;;4899835;29;20135;-81
2023/01/26 13:48:31;;;;;;;14.30;2.63;;;7.80;99.90;;;;;;4898588;29;20129;-82
2023/01/26 13:50:59;;;;;;;13.17;2.37;;;7.80;99.90;;;;;;4916627;29;20048;-82
2023/01/26 13:53:42;;;;;;;15.30;2.90;;;9.30;99.90;;;;;;4916627;29;20465;-82